createdAt,value
2022-10-17T00:00:36.101Z,19.5
2022-10-17T00:02:37.914Z,19.2
2022-10-17T00:04:39.693Z,19.9
2022-10-17T00:08:46.787Z,20.1
2022-10-17T00:15:54.836Z,20.5
2022-10-17T00:17:56.611Z,20.1
2022-10-17T00:24:05.522Z,25.1
2022-10-17T00:26:07.278Z,22.8
2022-10-17T00:28:09.086Z,24.5
2022-10-17T00:32:12.656Z,23.2
2022-10-17T00:36:19.718Z,25.7
2022-10-17T00:38:21.504Z,26.9
2022-10-17T00:40:23.306Z,25.4
2022-10-17T00:42:25.674Z,27
2022-10-17T00:48:33.924Z,31.2
2022-10-17T00:50:35.730Z,30.5
2022-10-17T00:52:37.485Z,29.8
2022-10-17T00:54:39.362Z,32.5
2022-10-17T00:56:41.046Z,31.9
2022-10-17T01:02:49.857Z,34.5
2022-10-17T01:04:51.627Z,33.6
2022-10-17T01:06:53.379Z,31.5
2022-10-17T01:07:56.002Z,35.5
2022-10-17T01:09:57.773Z,33.5
2022-10-17T01:11:59.566Z,33.6
2022-10-17T01:14:01.349Z,33.8
2022-10-17T01:20:10.233Z,36.6
2022-10-17T01:22:11.989Z,36.6
2022-10-17T01:24:13.791Z,37.1
2022-10-17T01:26:15.576Z,37.4
2022-10-17T01:30:22.641Z,38.7
2022-10-17T01:32:24.483Z,40.8
2022-10-17T01:38:31.015Z,39.6
2022-10-17T01:40:31.614Z,40.4
2022-10-17T01:42:33.358Z,40.1
2022-10-17T01:44:38.671Z,42.5
2022-10-17T01:46:40.443Z,40.8
2022-10-17T01:48:42.242Z,41.4
2022-10-17T01:50:44.005Z,40.8
2022-10-17T01:52:45.776Z,43.2
2022-10-17T02:02:58.243Z,42.4
2022-10-17T02:04:00.856Z,44.6
2022-10-17T02:06:02.637Z,44.9
2022-10-17T02:12:11.538Z,50.6
2022-10-17T02:14:13.353Z,46.1
2022-10-17T02:16:15.122Z,45.1
2022-10-17T02:22:20.456Z,46.6
2022-10-17T02:24:22.238Z,46.9
2022-10-17T02:26:27.530Z,48
2022-10-17T02:30:31.113Z,45
2022-10-17T02:32:36.102Z,42.8
2022-10-17T02:34:57.199Z,43.5
2022-10-17T02:36:36.491Z,46.2
2022-10-17T02:40:43.592Z,48.6
2022-10-17T02:42:45.380Z,47.4
2022-10-17T02:48:50.745Z,47.3
2022-10-17T02:50:52.533Z,50.8
2022-10-17T02:52:54.308Z,48.8
2022-10-17T02:57:01.355Z,50.6
2022-10-17T02:59:03.157Z,47.7
2022-10-17T03:01:27.076Z,49.8
2022-10-17T03:03:28.819Z,49.5
2022-10-17T03:05:30.631Z,50
2022-10-17T03:07:35.882Z,52.4
2022-10-17T03:09:37.719Z,48.2
2022-10-17T03:11:39.463Z,49.6
2022-10-17T03:13:41.238Z,48.4
2022-10-17T03:15:43.054Z,47.3
2022-10-17T03:19:46.648Z,48
2022-10-17T03:21:53.576Z,52
2022-10-17T03:23:55.378Z,48.2
2022-10-17T03:25:57.165Z,50.2
2022-10-17T03:30:00.762Z,47.1
2022-10-17T03:32:02.571Z,47.8
2022-10-17T03:34:04.384Z,46.6
2022-10-17T03:36:09.664Z,49.7
2022-10-17T03:38:11.456Z,46.2
2022-10-17T03:42:15.042Z,47.1
2022-10-17T03:44:16.844Z,46.6
2022-10-17T03:48:20.422Z,44
2022-10-17T03:50:25.725Z,47.9
2022-10-17T03:52:27.530Z,45.9
2022-10-17T03:54:29.304Z,46.2
2022-10-17T03:55:31.963Z,49.2
2022-10-17T03:57:33.778Z,44.8
2022-10-17T03:59:35.568Z,44.1
2022-10-17T04:03:42.668Z,46.5
2022-10-17T04:05:44.460Z,47.4
2022-10-17T04:07:46.257Z,47.4
2022-10-17T04:09:48.057Z,47.3
2022-10-17T04:11:49.895Z,48.6
2022-10-17T04:13:51.678Z,46.3
2022-10-17T04:15:53.473Z,43.6
2022-10-17T04:17:58.820Z,49.5
2022-10-17T04:20:00.593Z,47.5
2022-10-17T04:22:02.376Z,46.6
2022-10-17T04:24:04.221Z,44.7
2022-10-17T04:26:05.966Z,47.7
2022-10-17T04:28:07.775Z,47.5
2022-10-17T04:30:09.575Z,46.9
2022-10-17T04:32:14.852Z,52.6
2022-10-17T04:34:16.642Z,46.7
2022-10-17T04:36:18.419Z,46.2
2022-10-17T04:38:21.953Z,45
2022-10-17T04:40:22.012Z,47.2
2022-10-17T04:42:23.810Z,46.4
2022-10-17T04:44:25.608Z,43.4
2022-10-17T04:46:30.885Z,49.5
2022-10-17T04:48:32.675Z,48.8
2022-10-17T04:50:34.478Z,50.5
2022-10-17T04:55:40.755Z,46.2
2022-10-17T04:57:42.541Z,48.9
2022-10-17T05:01:49.636Z,50.6
2022-10-17T05:03:51.462Z,46.3
2022-10-17T05:05:53.249Z,46.8
2022-10-17T05:07:55.042Z,46.1
2022-10-17T05:09:56.858Z,48.2
2022-10-17T05:11:58.660Z,43.9
2022-10-17T05:14:03.958Z,49.1
2022-10-17T05:16:05.768Z,45.7
2022-10-17T05:20:09.362Z,48
2022-10-17T05:22:11.143Z,44.9
2022-10-17T05:24:12.947Z,46.2
2022-10-17T05:26:14.732Z,41.3
2022-10-17T05:28:19.984Z,40.9
2022-10-17T05:32:23.627Z,41.7
2022-10-17T05:34:25.416Z,41
2022-10-17T05:36:27.218Z,38.4
2022-10-17T05:38:29.093Z,42.2
2022-10-17T05:40:30.833Z,41.6
2022-10-17T05:44:37.953Z,41.9
2022-10-17T05:46:39.748Z,40.7
2022-10-17T05:47:42.401Z,43
2022-10-17T05:51:46.022Z,43.3
2022-10-17T05:53:47.852Z,39.9
2022-10-17T05:55:53.139Z,43.7
2022-10-17T05:57:54.944Z,41
2022-10-17T05:59:56.737Z,41.6
2022-10-17T06:01:58.592Z,37.9
2022-10-17T06:04:00.356Z,37.6
2022-10-17T06:06:02.138Z,39.6
2022-10-17T06:08:03.952Z,36.6
2022-10-17T06:12:11.036Z,38.5
2022-10-17T06:14:12.823Z,37.4
2022-10-17T06:16:14.632Z,37.7
2022-10-17T06:18:16.416Z,38.4
2022-10-17T06:20:18.211Z,39.1
2022-10-17T06:22:20.024Z,40.1
2022-10-17T06:24:25.300Z,38
2022-10-17T06:26:27.103Z,38.9
2022-10-17T06:28:29.016Z,34.3
2022-10-17T06:30:30.694Z,38.6
2022-10-17T06:32:32.677Z,32.8
2022-10-17T06:34:34.296Z,33.8
2022-10-17T06:36:36.085Z,34.9
2022-10-17T06:38:41.383Z,32.8
2022-10-17T06:40:43.191Z,36.7
2022-10-17T06:42:44.986Z,33.3
2022-10-17T06:47:04.133Z,32.2
2022-10-17T06:49:05.933Z,37
2022-10-17T06:51:11.222Z,33.5
2022-10-17T06:53:13.012Z,34.8
2022-10-17T06:55:16.841Z,31.1
2022-10-17T06:57:16.644Z,32.5
2022-10-17T06:59:18.449Z,34.4
2022-10-17T07:01:20.290Z,33.5
2022-10-17T07:03:22.077Z,36.5
2022-10-17T07:05:27.418Z,35.7
2022-10-17T07:07:29.357Z,32.4
2022-10-17T07:09:31.019Z,33.9
2022-10-17T07:11:32.832Z,31.3
2022-10-17T07:13:38.942Z,34
2022-10-17T07:15:36.448Z,35.8
2022-10-17T07:17:38.263Z,37
2022-10-17T07:19:43.566Z,37.9
2022-10-17T07:21:45.413Z,36
2022-10-17T07:23:47.183Z,36.6
2022-10-17T07:25:49.000Z,35.1
2022-10-17T07:27:50.800Z,34.9
2022-10-17T07:29:52.615Z,32.7
2022-10-17T07:31:54.445Z,33.7
2022-10-17T07:33:59.722Z,35.5
2022-10-17T07:38:03.341Z,35.9
2022-10-17T07:39:06.003Z,32.4
2022-10-17T07:41:07.785Z,35.6
2022-10-17T07:43:09.642Z,33
2022-10-17T07:45:11.427Z,32.2
2022-10-17T07:47:16.714Z,33.4
2022-10-17T07:49:18.543Z,33.1
2022-10-17T07:51:20.410Z,33.4
2022-10-17T07:53:22.173Z,34.1
2022-10-17T07:55:23.989Z,33.7
2022-10-17T07:57:25.795Z,32.7
2022-10-17T07:59:27.615Z,36.5
2022-10-17T08:01:32.910Z,34.6
2022-10-17T08:03:34.739Z,34
2022-10-17T08:05:36.523Z,36.2
2022-10-17T08:07:38.374Z,34.6
2022-10-17T08:09:40.158Z,34
2022-10-17T08:11:41.997Z,35.4
2022-10-17T08:13:43.824Z,33.1
2022-10-17T08:15:49.132Z,33.8
2022-10-17T08:17:50.956Z,31.8
2022-10-17T08:19:52.797Z,30.8
2022-10-17T08:21:54.647Z,28.3
2022-10-17T08:23:56.457Z,27.5
2022-10-17T08:25:58.259Z,28.6
2022-10-17T08:28:00.177Z,27.7
2022-10-17T08:30:05.406Z,27.5
2022-10-17T08:32:09.074Z,27.6
2022-10-17T08:34:09.034Z,27.2
2022-10-17T08:35:11.682Z,29.2
2022-10-17T08:37:13.559Z,25.8
2022-10-17T08:39:15.343Z,24.2
2022-10-17T08:41:17.185Z,26.3
2022-10-17T08:43:22.538Z,26.6
2022-10-17T08:45:24.319Z,25.2
2022-10-17T08:47:26.143Z,24.7
2022-10-17T08:49:27.928Z,27
2022-10-17T08:51:29.765Z,26.3
2022-10-17T08:53:31.562Z,26.8
2022-10-17T08:55:33.395Z,29.6
2022-10-17T08:57:38.707Z,27.3
2022-10-17T08:59:40.549Z,29.1
2022-10-17T09:01:42.357Z,27.3
2022-10-17T09:03:44.172Z,29.4
2022-10-17T09:05:45.973Z,28.9
2022-10-17T09:07:47.795Z,29
2022-10-17T09:09:49.615Z,30.1
2022-10-17T09:11:56.579Z,33.9
2022-10-17T09:13:58.342Z,33
2022-10-17T09:16:00.178Z,34
2022-10-17T09:18:01.988Z,33.3
2022-10-17T09:20:03.786Z,32.1
2022-10-17T09:22:05.598Z,35.1
2022-10-17T09:24:09.652Z,35
2022-10-17T09:26:12.716Z,34.6
2022-10-17T09:28:14.533Z,28.5
2022-10-17T09:30:21.508Z,29.7
2022-10-17T09:31:18.977Z,31.7
2022-10-17T09:33:35.174Z,28.9
2022-10-17T09:35:22.611Z,32.9
2022-10-17T09:39:29.729Z,30.5
2022-10-17T09:43:33.392Z,33.4
2022-10-17T09:45:35.197Z,32.5
2022-10-17T09:47:37.005Z,35.4
2022-10-17T09:52:04.087Z,28.9
2022-10-17T09:57:49.553Z,29.3
2022-10-17T10:05:56.799Z,28.3
2022-10-17T10:08:02.133Z,28.4
2022-10-17T10:10:03.955Z,27.2
2022-10-17T10:12:05.782Z,28.9
2022-10-17T10:16:09.395Z,27
2022-10-17T10:22:25.648Z,32.5
2022-10-17T10:24:20.155Z,28.4
2022-10-17T10:28:53.412Z,30.7
2022-10-17T10:32:49.455Z,28.2
2022-10-17T10:36:56.627Z,26.9
2022-10-17T10:39:01.302Z,24.9
2022-10-17T10:41:00.215Z,27.4
2022-10-17T10:43:05.355Z,27
2022-10-17T10:45:03.818Z,24.6
2022-10-17T10:47:05.653Z,23.5
2022-10-17T10:49:10.942Z,25.2
2022-10-17T10:51:12.747Z,22.7
2022-10-17T10:53:14.587Z,21.7
2022-10-17T10:55:16.377Z,24.2
2022-10-17T10:57:18.216Z,22.6
2022-10-17T10:59:20.041Z,24.5
2022-10-17T11:01:21.861Z,21.7
2022-10-17T11:05:28.983Z,22.8
2022-10-17T11:11:34.405Z,21.8
2022-10-17T11:13:36.225Z,18.3
2022-10-17T11:15:38.035Z,17.5
2022-10-17T11:21:46.955Z,16.4
2022-10-17T11:22:49.612Z,15.3
2022-10-17T11:24:51.430Z,14.4
2022-10-17T11:26:53.265Z,15.4
2022-10-17T11:28:55.195Z,13.7
2022-10-17T11:31:02.344Z,13.4
2022-10-17T11:33:02.216Z,13
2022-10-17T11:35:04.037Z,13.2
2022-10-17T11:39:07.698Z,14.1
2022-10-17T11:41:09.478Z,13.2
2022-10-17T11:43:11.305Z,11.2
2022-10-17T11:47:19.061Z,14.1
2022-10-17T11:49:20.985Z,14.4
2022-10-17T11:57:28.117Z,14.7
2022-10-17T12:03:37.083Z,11.8
2022-10-17T12:07:40.722Z,11.9
2022-10-17T12:09:42.540Z,11.9
2022-10-17T12:11:44.352Z,11.6
2022-10-17T12:15:51.469Z,8.5
2022-10-17T12:17:53.276Z,8.7
2022-10-17T12:18:55.932Z,7.5
2022-10-17T12:20:57.753Z,7.4
2022-10-17T12:22:59.574Z,7.7
2022-10-17T12:27:06.669Z,6.6
2022-10-17T12:29:08.543Z,6.3
2022-10-17T12:39:17.588Z,5.4
2022-10-17T12:45:26.522Z,4.5
2022-10-17T12:47:28.658Z,4.1
2022-10-17T12:52:05.163Z,4.6
2022-10-17T12:55:39.167Z,3.8
2022-10-17T13:05:48.200Z,4.4
2022-10-17T13:09:55.330Z,3.9
2022-10-17T13:11:57.137Z,4.2
2022-10-17T13:13:58.962Z,4.2
2022-10-17T13:15:01.602Z,4.3
2022-10-17T13:17:03.419Z,3.5
2022-10-17T13:19:05.250Z,3.9
2022-10-17T13:23:12.393Z,4.5
2022-10-17T13:25:14.184Z,3.8
2022-10-17T13:27:16.057Z,4.3
2022-10-17T13:29:18.182Z,5
2022-10-17T13:33:21.546Z,4.7
2022-10-17T13:35:31.734Z,4.4
2022-10-17T13:37:28.583Z,4.4
2022-10-17T13:39:45.276Z,4.9
2022-10-17T13:45:35.842Z,6.1
2022-10-17T13:51:44.774Z,6
2022-10-17T13:53:46.605Z,5.7
2022-10-17T13:56:03.585Z,6.2
2022-10-17T13:59:52.039Z,5.5
2022-10-17T14:01:53.869Z,6.2
2022-10-17T14:08:12.783Z,7.4
2022-10-17T14:10:04.647Z,7.4
2022-10-17T14:14:34.500Z,7.9
2022-10-17T14:16:32.117Z,8.6
2022-10-17T14:18:37.408Z,7.8
2022-10-17T14:21:28.727Z,7.8
2022-10-17T14:22:41.042Z,8.1
2022-10-17T14:24:42.859Z,7.6
2022-10-17T14:28:46.627Z,7.7
2022-10-17T14:30:57.118Z,7.8
2022-10-17T14:35:05.585Z,7.8
2022-10-17T14:36:57.275Z,6.7
2022-10-17T14:38:59.085Z,7.1
2022-10-17T14:41:15.708Z,7.4
2022-10-17T14:45:04.545Z,7
2022-10-17T14:49:11.713Z,6.3
2022-10-17T14:53:15.342Z,5.9
2022-10-17T14:57:37.118Z,6.7
2022-10-17T15:01:26.072Z,6.3
2022-10-17T15:06:38.597Z,5.3
2022-10-17T15:08:35.846Z,5
2022-10-17T15:10:37.627Z,5.1
2022-10-17T15:12:47.002Z,5.7
2022-10-17T15:14:44.754Z,5.9
2022-10-17T15:16:46.576Z,5.6
2022-10-17T15:18:48.413Z,5.2
2022-10-17T15:20:56.284Z,5.1
2022-10-17T15:22:52.048Z,5.2
2022-10-17T15:24:53.895Z,4.9
2022-10-17T15:26:55.691Z,5.5
2022-10-17T15:29:01.055Z,5.9
2022-10-17T15:31:02.840Z,6
2022-10-17T15:33:04.648Z,5.4
2022-10-17T15:35:06.474Z,6.1
2022-10-17T15:37:08.308Z,6
2022-10-17T15:39:10.195Z,6.6
2022-10-17T15:41:11.972Z,7.2
2022-10-17T15:43:19.965Z,7.3
2022-10-17T15:45:19.099Z,7.2
2022-10-17T15:47:20.911Z,7.8
2022-10-17T15:49:22.734Z,6.8
2022-10-17T15:51:24.552Z,7.2
2022-10-17T15:53:26.383Z,7.2
2022-10-17T15:55:28.209Z,7.4
2022-10-17T15:59:35.365Z,7.7
2022-10-17T16:01:37.184Z,9.4
2022-10-17T16:02:39.842Z,8.4
2022-10-17T16:06:43.500Z,8.4
2022-10-17T16:08:45.325Z,8.6
2022-10-17T16:10:50.656Z,8.2
2022-10-17T16:12:52.466Z,8.6
2022-10-17T16:14:54.331Z,9.8
2022-10-17T16:16:56.148Z,9
2022-10-17T16:18:57.953Z,9.4
2022-10-17T16:20:59.802Z,8.9
2022-10-17T16:23:01.601Z,10
2022-10-17T16:25:06.894Z,11.2
2022-10-17T16:27:08.739Z,11
2022-10-17T16:29:10.659Z,10.6
2022-10-17T16:31:12.415Z,12.2
2022-10-17T16:35:16.050Z,13.9
2022-10-17T16:37:17.841Z,12.9
2022-10-17T16:39:23.212Z,14.5
2022-10-17T16:43:26.807Z,15.1
2022-10-17T16:45:28.630Z,15.4
2022-10-17T16:47:30.446Z,16
2022-10-17T16:49:32.243Z,16.9
2022-10-17T16:51:34.062Z,19.3
2022-10-17T16:53:39.357Z,18.6
2022-10-17T16:58:45.637Z,20.5
2022-10-17T17:00:47.466Z,20.5
2022-10-17T17:02:49.249Z,20.8
2022-10-17T17:04:51.062Z,22.6
2022-10-17T17:06:56.364Z,23.3
2022-10-17T17:08:58.155Z,22
2022-10-17T17:10:59.972Z,20.1
2022-10-17T17:13:01.787Z,20
2022-10-17T17:15:03.609Z,18.2
2022-10-17T17:17:05.420Z,20.2
2022-10-17T17:19:07.229Z,20.2
2022-10-17T17:21:12.532Z,19.9
2022-10-17T17:23:15.917Z,19.9
2022-10-17T17:25:16.181Z,18.9
2022-10-17T17:27:17.982Z,18.1
2022-10-17T17:29:19.817Z,18.2
2022-10-17T17:31:21.598Z,17.8
2022-10-17T17:33:23.412Z,19.3
2022-10-17T17:35:28.716Z,19.6
2022-10-17T17:39:32.346Z,17.7
2022-10-17T17:41:34.182Z,17.5
2022-10-17T17:43:36.061Z,17.2
2022-10-17T17:45:37.799Z,17.8
2022-10-17T17:47:39.626Z,20
2022-10-17T17:49:44.899Z,19.2
2022-10-17T17:51:46.796Z,20
2022-10-17T17:53:48.577Z,19
2022-10-17T17:58:08.329Z,18.8
2022-10-17T18:00:09.924Z,19.9
2022-10-17T18:02:15.250Z,22
2022-10-17T18:04:17.038Z,21.2
2022-10-17T18:06:18.860Z,22.5
2022-10-17T18:08:20.708Z,22.7
2022-10-17T18:14:26.155Z,23.3
2022-10-17T18:16:31.449Z,25.9
2022-10-17T18:18:33.285Z,24.1
2022-10-17T18:20:35.059Z,25.4
2022-10-17T18:22:36.907Z,24.2
2022-10-17T18:24:38.697Z,24.6
2022-10-17T18:26:40.527Z,25.1
2022-10-17T18:30:47.652Z,27.5
2022-10-17T18:32:49.541Z,29.6
2022-10-17T18:34:51.263Z,27.6
2022-10-17T18:36:53.185Z,28.2
2022-10-17T18:40:56.712Z,30.6
2022-10-17T18:42:58.533Z,30.8
2022-10-17T18:45:03.810Z,30.8
2022-10-17T18:49:07.465Z,31
2022-10-17T18:50:10.122Z,32.1
2022-10-17T18:52:11.911Z,33.8
2022-10-17T18:54:13.762Z,34.3
2022-10-17T18:56:15.565Z,33.1
2022-10-17T19:00:22.676Z,35.5
2022-10-17T19:02:24.502Z,35.1
2022-10-17T19:04:26.300Z,40
2022-10-17T19:06:28.183Z,51.5
2022-10-17T19:08:29.903Z,42
2022-10-17T19:10:31.736Z,44.4
2022-10-17T19:12:37.048Z,44.1
2022-10-17T19:14:38.877Z,42.9
2022-10-17T19:16:40.734Z,44.4
2022-10-17T19:18:42.538Z,43.7
2022-10-17T19:20:44.367Z,44.5
2022-10-17T19:22:46.223Z,43.5
2022-10-17T19:28:55.192Z,47.8
2022-10-17T19:30:56.925Z,48.4
2022-10-17T19:32:58.739Z,48.5
2022-10-17T19:35:00.555Z,48.6
2022-10-17T19:37:02.367Z,52.2
2022-10-17T19:39:04.182Z,50.4
2022-10-17T19:41:09.467Z,51.9
2022-10-17T19:43:11.281Z,52.8
2022-10-17T19:45:13.116Z,54.2
2022-10-17T19:46:15.752Z,54.8
2022-10-17T19:48:17.569Z,56.1
2022-10-17T19:50:19.396Z,59.3
2022-10-17T19:52:21.193Z,64.9
2022-10-17T19:54:26.494Z,59.9
2022-10-17T19:56:28.324Z,58.2
2022-10-17T19:58:30.154Z,61.5
2022-10-17T20:00:31.932Z,65.4
2022-10-17T20:04:35.573Z,61.5
2022-10-17T20:06:37.383Z,63.2
2022-10-17T20:08:42.646Z,63.1
2022-10-17T20:12:46.338Z,61.7
2022-10-17T20:16:49.934Z,60.1
2022-10-17T20:18:51.769Z,63.4
2022-10-17T20:22:58.898Z,67.4
2022-10-17T20:25:00.702Z,62.3
2022-10-17T20:31:06.168Z,64
2022-10-17T20:35:09.811Z,64.9
2022-10-17T20:37:15.152Z,64.8
2022-10-17T20:39:16.978Z,65.7
2022-10-17T20:48:26.842Z,61.4
2022-10-17T20:50:32.149Z,60.9
2022-10-17T20:54:37.426Z,60.8
2022-10-17T20:56:39.205Z,58.7
2022-10-17T20:58:41.014Z,59.4
2022-10-17T21:00:42.819Z,58.5
2022-10-17T21:04:49.947Z,59.8
2022-10-17T21:12:57.491Z,56.5
2022-10-17T21:14:59.073Z,60
2022-10-17T21:17:04.802Z,58.5
2022-10-17T21:19:06.186Z,58.3
2022-10-17T21:21:07.996Z,58.4
2022-10-17T21:23:09.804Z,59.6
2022-10-17T21:25:11.596Z,58.1
2022-10-17T21:31:17.056Z,59.8
2022-10-17T21:33:22.357Z,58.8
2022-10-17T21:37:25.985Z,55.4
2022-10-17T21:39:49.682Z,59.7
2022-10-17T21:41:51.501Z,59.1
2022-10-17T21:45:58.604Z,61
2022-10-17T21:54:06.063Z,59.3
2022-10-17T21:56:07.653Z,58.8
2022-10-17T21:58:09.471Z,58.6
2022-10-17T22:02:16.548Z,64.8
2022-10-17T22:04:18.385Z,56.5
2022-10-17T22:06:39.103Z,58
2022-10-17T22:08:21.997Z,61.1
2022-10-17T22:10:23.829Z,58.7
2022-10-17T22:14:30.917Z,65.4
2022-10-17T22:16:32.717Z,58.5
2022-10-17T22:18:34.534Z,56.2
2022-10-17T22:22:38.140Z,59
2022-10-17T22:24:39.962Z,61.9
2022-10-17T22:26:41.771Z,61.2
2022-10-17T22:28:47.078Z,61.7
2022-10-17T22:30:48.849Z,61.6
2022-10-17T22:32:50.675Z,61.6
2022-10-17T22:33:53.308Z,56.7
2022-10-17T22:35:55.130Z,59.9
2022-10-17T22:37:56.945Z,60.9
2022-10-17T22:42:04.026Z,64.1
2022-10-17T22:44:05.843Z,65.2
2022-10-17T22:46:07.660Z,58.3
2022-10-17T22:48:09.514Z,62.4
2022-10-17T22:50:11.306Z,59.3
2022-10-17T22:52:13.119Z,64
2022-10-17T22:54:14.956Z,62.5
2022-10-17T22:56:20.218Z,63.5
2022-10-17T22:58:22.070Z,65.9
2022-10-17T23:00:23.920Z,63.2
2022-10-17T23:02:25.697Z,62.7
2022-10-17T23:04:27.494Z,61.2
2022-10-17T23:12:38.202Z,67.7
2022-10-17T23:14:39.993Z,64.3
2022-10-17T23:16:41.811Z,66.4
2022-10-17T23:18:43.663Z,67.4
2022-10-17T23:20:45.455Z,64.1
2022-10-17T23:22:47.315Z,61.9
2022-10-17T23:24:52.588Z,64.4
2022-10-17T23:26:54.400Z,60.8
2022-10-17T23:28:56.286Z,61.4
2022-10-17T23:29:58.902Z,67.9
2022-10-17T23:32:00.664Z,66.3
2022-10-17T23:34:02.482Z,67.2
2022-10-17T23:36:04.284Z,64.8
2022-10-17T23:38:10.384Z,63.7
2022-10-17T23:40:14.755Z,62.7
2022-10-17T23:42:13.248Z,61.5
2022-10-17T23:44:15.023Z,66.5
2022-10-17T23:46:16.833Z,65.5
2022-10-17T23:48:18.655Z,68.9
2022-10-17T23:50:20.471Z,63
2022-10-17T23:52:25.760Z,64.9
2022-10-17T23:54:27.552Z,68.2
2022-10-17T23:58:31.179Z,60.6
